Time;durP1;ratioP1;P1;durP2;ratioP2;P2;SDS_P1;SDS_P2;PMS_P1;PMS_P2;Temp;Humidity;BMP_temperature;BMP_pressure;BME280_temperature;BME280_humidity;BME280_pressure;Samples;Min_cycle;Max_cycle;Signal;HPM_P1;HPM_P2
2021/09/26 00:01:42;;;;;;;61.73;3.40;;;16.70;1.00;;;;;;5051717;28;20576;-69
2021/09/26 00:04:10;;;;;;;58.67;3.00;;;16.70;1.00;;;;;;5052014;28;20820;-69
2021/09/26 00:06:36;;;;;;;59.07;2.77;;;16.70;1.00;;;;;;5051127;28;20536;-69
2021/09/26 00:09:04;;;;;;;58.43;2.80;;;16.80;1.00;;;;;;5051678;28;20451;-69
2021/09/26 00:11:31;;;;;;;58.47;3.00;;;16.80;1.00;;;;;;5051372;28;20538;-69
2021/09/26 00:13:59;;;;;;;59.57;3.20;;;16.80;1.00;;;;;;5051597;28;20631;-69
2021/09/26 00:16:26;;;;;;;59.10;3.30;;;16.90;1.00;;;;;;5051073;28;20542;-69
2021/09/26 00:18:53;;;;;;;58.43;3.10;;;16.90;1.00;;;;;;5051359;28;20488;-70
2021/09/26 00:21:20;;;;;;;58.50;2.70;;;16.90;1.00;;;;;;5051431;28;21014;-69
2021/09/26 00:23:49;;;;;;;59.00;2.90;;;16.90;1.00;;;;;;5051204;28;20551;-69
2021/09/26 00:26:16;;;;;;;58.60;3.10;;;16.90;1.00;;;;;;5051134;27;20456;-70
2021/09/26 00:28:43;;;;;;;58.37;2.80;;;16.90;1.00;;;;;;5051419;28;20472;-69
2021/09/26 00:31:11;;;;;;;57.87;2.70;;;16.90;1.00;;;;;;5051097;28;20462;-69
2021/09/26 00:33:38;;;;;;;58.57;3.07;;;16.80;1.00;;;;;;5051070;28;20562;-69
2021/09/26 00:36:05;;;;;;;58.40;3.13;;;16.80;1.00;;;;;;5050712;28;20876;-69
2021/09/26 00:38:32;;;;;;;58.43;3.00;;;16.80;1.00;;;;;;5050739;28;20573;-69
2021/09/26 00:40:59;;;;;;;58.50;3.07;;;16.80;1.00;;;;;;5051022;28;21021;-70
2021/09/26 00:43:25;;;;;;;59.20;4.37;;;16.80;1.00;;;;;;5050871;28;20447;-70
2021/09/26 00:45:52;;;;;;;58.70;3.13;;;16.80;1.00;;;;;;5050604;28;20491;-70
2021/09/26 00:48:20;;;;;;;59.83;3.40;;;16.80;1.00;;;;;;5050871;28;20478;-70
2021/09/26 00:50:47;;;;;;;58.17;2.80;;;16.70;1.00;;;;;;5051004;28;20890;-70
2021/09/26 00:53:17;;;;;;;58.27;2.70;;;16.70;1.00;;;;;;5050720;28;20458;-70
2021/09/26 00:55:46;;;;;;;58.60;3.00;;;16.60;1.00;;;;;;5050651;28;20452;-69
2021/09/26 00:58:13;;;;;;;58.37;2.60;;;16.50;1.00;;;;;;5050887;27;20576;-69
2021/09/26 01:00:40;;;;;;;59.87;2.90;;;16.50;1.00;;;;;;5050584;28;20444;-69
2021/09/26 01:03:06;;;;;;;59.90;3.77;;;16.40;1.00;;;;;;5050605;28;20548;-69
2021/09/26 01:05:35;;;;;;;58.07;2.60;;;16.40;1.00;;;;;;5050386;28;20447;-69
2021/09/26 01:08:10;;;;;;;60.00;3.43;;;16.30;1.00;;;;;;5050580;28;20473;-69
2021/09/26 01:10:44;;;;;;;58.20;2.97;;;16.30;1.00;;;;;;5050648;28;21033;-70
2021/09/26 01:13:22;;;;;;;58.60;3.47;;;16.30;1.00;;;;;;5050622;28;20811;-70
2021/09/26 01:15:59;;;;;;;58.70;3.10;;;16.20;1.00;;;;;;5050113;28;20483;-70
2021/09/26 01:18:38;;;;;;;58.70;3.00;;;16.20;1.00;;;;;;5050382;28;20487;-70
2021/09/26 01:21:16;;;;;;;58.50;3.17;;;16.20;1.00;;;;;;5050603;28;20451;-70
2021/09/26 01:24:18;;;;;;;58.50;3.00;;;16.20;1.00;;;;;;5050218;28;20451;-70
2021/09/26 01:26:54;;;;;;;58.43;3.10;;;16.10;1.00;;;;;;5050068;28;20434;-70
2021/09/26 01:29:34;;;;;;;59.20;3.50;;;16.10;1.00;;;;;;5050461;28;20529;-70
2021/09/26 01:32:06;;;;;;;58.53;3.30;;;16.10;1.00;;;;;;5050295;28;20534;-69
2021/09/26 01:34:39;;;;;;;58.70;2.80;;;16.10;1.00;;;;;;5050166;28;20538;-69
2021/09/26 01:37:12;;;;;;;58.47;2.70;;;16.10;1.00;;;;;;5049243;28;20464;-69
2021/09/26 01:39:45;;;;;;;58.43;3.13;;;16.10;1.00;;;;;;5050277;28;20531;-69
2021/09/26 01:42:18;;;;;;;58.60;3.20;;;16.10;1.00;;;;;;5050198;28;20475;-69
2021/09/26 01:44:53;;;;;;;58.63;3.03;;;16.10;1.00;;;;;;5050526;28;20868;-70
2021/09/26 01:47:28;;;;;;;59.17;3.30;;;16.00;1.00;;;;;;5049615;28;20474;-69
2021/09/26 01:49:59;;;;;;;58.40;3.30;;;16.00;1.00;;;;;;5050035;28;20498;-69
2021/09/26 01:52:30;;;;;;;58.70;3.50;;;16.00;1.00;;;;;;5050242;28;20467;-69
2021/09/26 01:54:58;;;;;;;58.57;3.30;;;15.90;1.00;;;;;;5049764;28;20538;-69
2021/09/26 01:57:25;;;;;;;58.80;3.73;;;15.90;1.00;;;;;;5048386;28;20984;-69
2021/09/26 01:59:55;;;;;;;58.90;3.73;;;15.80;1.00;;;;;;5049940;28;20459;-69
2021/09/26 02:02:26;;;;;;;58.33;2.87;;;15.80;1.00;;;;;;5049721;28;20454;-69
2021/09/26 02:04:59;;;;;;;59.20;3.00;;;15.80;1.00;;;;;;5050068;28;20995;-69
2021/09/26 02:07:26;;;;;;;58.17;2.60;;;15.70;1.00;;;;;;5048407;28;20478;-69
2021/09/26 02:09:54;;;;;;;58.47;2.70;;;15.70;1.00;;;;;;5049837;28;20446;-69
2021/09/26 02:12:22;;;;;;;58.47;2.87;;;15.60;1.00;;;;;;5049674;28;20450;-69
2021/09/26 02:14:51;;;;;;;58.53;2.77;;;15.60;1.00;;;;;;5049742;27;21029;-69
2021/09/26 02:17:18;;;;;;;58.53;2.77;;;15.60;1.00;;;;;;5049073;28;20472;-69
2021/09/26 02:19:48;;;;;;;58.90;3.50;;;15.50;1.00;;;;;;5049465;28;20935;-69
2021/09/26 02:22:16;;;;;;;58.67;2.80;;;15.50;1.00;;;;;;5049315;28;20449;-69
2021/09/26 02:24:44;;;;;;;58.37;2.80;;;15.50;1.00;;;;;;5049577;28;20529;-69
2021/09/26 02:27:11;;;;;;;58.27;2.60;;;15.40;1.00;;;;;;5049245;28;21021;-69
2021/09/26 02:29:38;;;;;;;58.53;2.70;;;15.40;1.00;;;;;;5049225;28;20888;-69
2021/09/26 02:32:05;;;;;;;58.47;2.90;;;15.40;1.00;;;;;;5049304;28;20453;-69
2021/09/26 02:34:32;;;;;;;59.10;2.73;;;15.40;1.00;;;;;;5049306;28;20457;-69
2021/09/26 02:37:01;;;;;;;58.53;2.90;;;15.40;1.00;;;;;;5048957;28;21049;-69
2021/09/26 02:39:28;;;;;;;58.27;2.60;;;15.40;1.00;;;;;;5049195;28;20487;-69
2021/09/26 02:42:05;;;;;;;58.67;3.07;;;15.40;1.00;;;;;;5049278;28;20542;-69
2021/09/26 02:44:39;;;;;;;59.13;3.50;;;15.30;1.00;;;;;;5049432;28;20818;-69
2021/09/26 02:47:12;;;;;;;58.57;2.93;;;15.30;1.00;;;;;;5047707;28;20554;-69
2021/09/26 02:49:39;;;;;;;58.77;3.07;;;15.20;1.00;;;;;;5049156;28;20524;-69
2021/09/26 02:52:09;;;;;;;58.67;3.10;;;15.20;1.00;;;;;;5049315;28;20484;-69
2021/09/26 02:54:38;;;;;;;58.87;3.00;;;15.20;1.00;;;;;;5049078;28;20458;-69
2021/09/26 02:57:06;;;;;;;58.60;3.10;;;15.10;1.00;;;;;;5048510;28;20552;-69
2021/09/26 02:59:33;;;;;;;59.00;3.63;;;15.10;1.00;;;;;;5048659;28;20569;-69
2021/09/26 03:02:01;;;;;;;58.57;2.90;;;15.10;1.00;;;;;;5049114;28;20455;-69
2021/09/26 03:04:28;;;;;;;59.87;4.00;;;15.10;1.00;;;;;;5049255;27;20553;-69
2021/09/26 03:06:56;;;;;;;59.00;3.43;;;15.10;1.00;;;;;;5048476;28;20510;-69
2021/09/26 03:09:25;;;;;;;58.97;3.97;;;15.10;1.00;;;;;;5049347;28;20534;-69
2021/09/26 03:11:52;;;;;;;58.30;3.10;;;15.10;1.00;;;;;;5048942;28;20498;-69
2021/09/26 03:14:18;;;;;;;59.97;3.07;;;15.10;1.00;;;;;;5048519;28;21036;-69
2021/09/26 03:16:45;;;;;;;60.10;3.63;;;15.10;1.00;;;;;;5048290;28;20933;-69
2021/09/26 03:19:12;;;;;;;58.37;2.90;;;15.00;1.00;;;;;;5049011;28;20481;-69
2021/09/26 03:21:39;;;;;;;58.57;3.23;;;15.00;1.00;;;;;;5048740;28;20498;-69
2021/09/26 03:24:06;;;;;;;58.47;2.60;;;15.00;1.00;;;;;;5049130;28;20535;-69
2021/09/26 03:26:34;;;;;;;58.67;3.50;;;15.00;1.00;;;;;;5048217;28;20537;-69
2021/09/26 03:29:01;;;;;;;58.17;2.90;;;15.00;1.00;;;;;;5048508;28;21032;-69
2021/09/26 03:31:28;;;;;;;58.47;3.10;;;15.00;1.00;;;;;;5048514;28;20460;-69
2021/09/26 03:33:57;;;;;;;58.57;3.10;;;15.00;1.00;;;;;;5048837;28;20492;-69
2021/09/26 03:36:24;;;;;;;58.60;3.20;;;14.90;1.00;;;;;;5048440;27;20451;-68
2021/09/26 03:38:51;;;;;;;58.57;2.80;;;14.90;1.00;;;;;;5048229;28;20989;-69
2021/09/26 03:41:18;;;;;;;58.77;3.17;;;14.90;1.00;;;;;;5048250;28;20458;-69
2021/09/26 03:43:46;;;;;;;58.63;3.07;;;14.90;1.00;;;;;;5048764;28;20500;-69
2021/09/26 03:46:13;;;;;;;58.47;3.00;;;14.90;1.00;;;;;;5048230;28;20537;-69
2021/09/26 03:48:40;;;;;;;58.77;3.20;;;14.90;1.00;;;;;;5048251;27;20483;-69
2021/09/26 03:51:07;;;;;;;58.47;2.90;;;14.80;1.00;;;;;;5048447;28;20451;-69
2021/09/26 03:53:34;;;;;;;58.30;2.50;;;14.80;1.00;;;;;;5048341;28;20453;-69
2021/09/26 03:56:00;;;;;;;58.30;2.70;;;14.80;1.00;;;;;;5047878;28;20949;-69
2021/09/26 03:58:27;;;;;;;58.23;2.87;;;14.80;1.00;;;;;;5048612;28;20527;-69
2021/09/26 04:00:55;;;;;;;58.27;2.93;;;14.70;1.00;;;;;;5052003;28;20842;-69
2021/09/26 04:03:22;;;;;;;58.37;2.70;;;14.70;1.00;;;;;;5051925;28;21013;-69
2021/09/26 04:05:49;;;;;;;58.20;2.57;;;14.70;1.00;;;;;;5051239;28;20450;-69
2021/09/26 04:08:16;;;;;;;58.33;2.60;;;14.70;1.00;;;;;;5051331;28;20467;-69
2021/09/26 04:10:43;;;;;;;59.63;3.07;;;14.70;1.00;;;;;;5051985;28;20461;-69
2021/09/26 04:13:11;;;;;;;58.67;2.80;;;14.70;1.00;;;;;;5051744;28;20445;-69
2021/09/26 04:15:38;;;;;;;59.00;3.20;;;14.70;1.00;;;;;;5051230;28;20461;-69
2021/09/26 04:18:06;;;;;;;58.47;2.90;;;14.70;1.00;;;;;;5051172;28;20577;-69
2021/09/26 04:20:33;;;;;;;58.27;2.83;;;14.70;1.00;;;;;;5051389;28;20461;-69
2021/09/26 04:23:00;;;;;;;58.67;2.87;;;14.70;1.00;;;;;;5051367;28;20532;-69
2021/09/26 04:25:27;;;;;;;58.53;3.10;;;14.70;1.00;;;;;;5050919;28;20965;-69
2021/09/26 04:27:57;;;;;;;59.40;3.20;;;14.70;1.00;;;;;;5051191;28;20513;-69
2021/09/26 04:30:24;;;;;;;58.80;2.80;;;14.70;1.00;;;;;;5051112;27;20466;-69
2021/09/26 04:32:51;;;;;;;59.20;3.57;;;14.70;1.00;;;;;;5051061;28;20545;-69
2021/09/26 04:35:19;;;;;;;58.67;3.00;;;14.70;1.00;;;;;;5050950;28;20946;-69
2021/09/26 04:37:46;;;;;;;58.87;2.67;;;14.60;1.00;;;;;;5051343;28;20489;-69
2021/09/26 04:40:14;;;;;;;58.37;2.60;;;14.60;1.00;;;;;;5051040;28;20572;-69
2021/09/26 04:42:40;;;;;;;58.37;3.07;;;14.60;1.00;;;;;;5050846;28;20946;-69
2021/09/26 04:45:09;;;;;;;58.40;2.87;;;14.60;1.00;;;;;;5051436;28;20452;-69
2021/09/26 04:47:36;;;;;;;58.60;2.80;;;14.50;1.00;;;;;;5050767;28;20560;-69
2021/09/26 04:50:05;;;;;;;58.47;2.63;;;14.50;1.00;;;;;;5050761;28;20538;-69
2021/09/26 04:52:33;;;;;;;58.33;2.70;;;14.50;1.00;;;;;;5050919;27;20459;-69
2021/09/26 04:55:00;;;;;;;60.17;3.50;;;14.50;1.00;;;;;;5051004;28;20890;-69
2021/09/26 04:57:27;;;;;;;58.50;2.90;;;14.50;1.00;;;;;;5050484;28;20477;-69
2021/09/26 04:59:54;;;;;;;58.83;3.90;;;14.50;1.00;;;;;;5051076;28;20576;-69
2021/09/26 05:02:21;;;;;;;58.47;2.90;;;14.50;1.00;;;;;;5050648;28;20444;-69
2021/09/26 05:04:48;;;;;;;60.90;3.67;;;14.50;1.00;;;;;;5050969;28;20477;-69
2021/09/26 05:07:15;;;;;;;58.77;3.07;;;14.40;1.00;;;;;;5050405;28;20482;-69
2021/09/26 05:09:44;;;;;;;58.80;3.00;;;14.40;1.00;;;;;;5050378;28;20536;-69
2021/09/26 05:12:11;;;;;;;60.40;3.73;;;14.30;1.00;;;;;;5049900;28;20453;-69
2021/09/26 05:14:38;;;;;;;58.57;2.87;;;14.30;1.00;;;;;;5050655;28;20528;-69
2021/09/26 05:17:05;;;;;;;58.67;2.83;;;14.30;1.00;;;;;;5049972;28;20553;-69
2021/09/26 05:19:33;;;;;;;58.43;2.90;;;14.30;1.00;;;;;;5050552;28;20928;-69
2021/09/26 05:22:00;;;;;;;58.70;3.20;;;14.30;1.00;;;;;;5050520;28;20933;-69
2021/09/26 05:24:27;;;;;;;58.27;2.80;;;14.30;1.00;;;;;;5050586;28;20450;-69
2021/09/26 05:26:55;;;;;;;58.60;3.00;;;14.30;1.00;;;;;;5049950;28;20888;-69
2021/09/26 05:29:22;;;;;;;58.37;2.90;;;14.30;1.00;;;;;;5050445;28;20449;-69
2021/09/26 05:31:49;;;;;;;58.23;2.60;;;14.30;1.00;;;;;;5050305;28;20870;-69
2021/09/26 05:34:16;;;;;;;58.50;2.70;;;14.20;1.00;;;;;;5050288;28;20482;-70
2021/09/26 05:36:42;;;;;;;58.50;2.77;;;14.20;1.00;;;;;;5049896;27;20491;-70
2021/09/26 05:39:09;;;;;;;58.57;2.97;;;14.20;1.00;;;;;;5050382;28;20532;-69
2021/09/26 05:41:36;;;;;;;58.33;2.80;;;14.20;1.00;;;;;;5049997;28;20477;-69
2021/09/26 05:44:05;;;;;;;58.50;3.03;;;14.20;1.00;;;;;;5049973;28;20697;-69
2021/09/26 05:46:32;;;;;;;58.27;2.90;;;14.20;1.00;;;;;;5049656;28;20452;-69
2021/09/26 05:48:58;;;;;;;58.43;2.97;;;14.20;1.00;;;;;;5050065;28;20465;-70
2021/09/26 05:51:25;;;;;;;58.53;2.80;;;14.20;1.00;;;;;;5050072;28;20456;-69
2021/09/26 05:53:52;;;;;;;59.10;3.20;;;14.20;1.00;;;;;;5050086;28;20477;-69
2021/09/26 05:56:19;;;;;;;58.70;3.00;;;14.10;1.00;;;;;;5049662;28;20495;-69
2021/09/26 05:58:46;;;;;;;58.87;3.40;;;14.10;1.00;;;;;;5049522;28;20496;-69
2021/09/26 06:01:14;;;;;;;58.50;2.90;;;14.10;1.00;;;;;;5049916;28;20472;-69
2021/09/26 06:03:41;;;;;;;58.33;2.70;;;14.20;1.00;;;;;;5049770;28;20446;-69
2021/09/26 06:06:08;;;;;;;58.67;3.17;;;14.20;1.00;;;;;;5049545;27;20571;-69
2021/09/26 06:08:35;;;;;;;59.10;3.00;;;14.20;1.00;;;;;;5049765;27;20557;-69
2021/09/26 06:11:02;;;;;;;58.57;2.70;;;14.30;1.00;;;;;;5049478;28;20827;-69
2021/09/26 06:13:29;;;;;;;58.07;2.80;;;14.30;1.00;;;;;;5049541;28;20453;-69
2021/09/26 06:15:56;;;;;;;58.57;3.00;;;14.30;1.00;;;;;;5049438;28;20488;-69
2021/09/26 06:18:24;;;;;;;58.40;2.80;;;14.40;1.00;;;;;;5049614;28;21071;-69
2021/09/26 06:20:51;;;;;;;58.40;2.83;;;14.50;1.00;;;;;;5049482;28;20486;-69
2021/09/26 06:23:18;;;;;;;58.43;2.90;;;14.50;1.00;;;;;;5049491;28;20536;-69
2021/09/26 06:25:45;;;;;;;58.60;3.10;;;14.60;1.00;;;;;;5048994;28;20697;-69
2021/09/26 06:28:12;;;;;;;58.50;2.90;;;14.60;1.00;;;;;;5049520;28;20565;-68
2021/09/26 06:30:39;;;;;;;58.37;3.13;;;14.60;1.00;;;;;;5049374;28;20467;-68
2021/09/26 06:33:07;;;;;;;58.20;2.80;;;14.70;2.20;;;;;;5049318;28;20451;-68
2021/09/26 06:35:35;;;;;;;58.83;3.47;;;14.80;7.30;;;;;;5049089;28;20533;-68
2021/09/26 06:38:02;;;;;;;58.23;2.77;;;14.90;7.30;;;;;;5049325;28;20513;-68
2021/09/26 06:40:30;;;;;;;58.57;3.10;;;14.90;8.70;;;;;;5048936;28;20483;-68
2021/09/26 06:42:57;;;;;;;58.77;3.03;;;15.10;13.60;;;;;;5049364;27;20456;-68
2021/09/26 06:45:24;;;;;;;58.63;3.37;;;15.20;14.70;;;;;;5049021;28;20540;-69
2021/09/26 06:47:51;;;;;;;58.37;3.00;;;15.30;11.70;;;;;;5049241;28;20472;-69
2021/09/26 06:50:18;;;;;;;58.33;2.70;;;15.40;6.80;;;;;;5048995;28;20454;-69
2021/09/26 06:52:47;;;;;;;58.33;3.00;;;15.40;4.00;;;;;;5048982;28;20881;-69
2021/09/26 06:55:15;;;;;;;58.57;2.80;;;15.40;2.70;;;;;;5048667;28;20460;-69
2021/09/26 06:57:42;;;;;;;58.47;2.97;;;15.40;3.10;;;;;;5048727;28;20469;-69
2021/09/26 07:00:10;;;;;;;58.27;2.70;;;15.50;3.60;;;;;;5048892;28;20486;-69
2021/09/26 07:02:37;;;;;;;58.33;2.90;;;15.50;3.60;;;;;;5049002;28;20455;-69
2021/09/26 07:05:04;;;;;;;58.23;2.67;;;15.60;4.60;;;;;;5048765;28;20454;-69
2021/09/26 07:07:31;;;;;;;58.57;3.00;;;15.70;4.80;;;;;;5048361;28;20853;-69
2021/09/26 07:09:59;;;;;;;58.67;3.50;;;15.70;4.40;;;;;;5048716;28;20452;-69
2021/09/26 07:12:26;;;;;;;58.33;3.10;;;15.80;4.80;;;;;;5049026;28;20534;-69
2021/09/26 07:14:53;;;;;;;58.40;3.00;;;15.90;3.40;;;;;;5048906;28;20473;-69
2021/09/26 07:17:21;;;;;;;58.30;2.93;;;16.10;2.10;;;;;;5048473;28;20479;-69
2021/09/26 07:19:48;;;;;;;58.37;3.00;;;16.20;1.00;;;;;;5049015;28;20951;-69
2021/09/26 07:22:19;;;;;;;58.30;3.10;;;16.30;1.00;;;;;;5049007;28;20812;-69
2021/09/26 07:24:46;;;;;;;58.03;2.73;;;16.40;1.00;;;;;;5048751;28;20466;-69
2021/09/26 07:27:15;;;;;;;58.37;3.30;;;16.60;1.00;;;;;;5048378;28;20566;-69
2021/09/26 07:29:42;;;;;;;58.40;3.00;;;16.70;1.00;;;;;;5048559;28;20460;-69
2021/09/26 07:32:09;;;;;;;58.37;2.90;;;16.90;1.00;;;;;;5048621;28;20555;-69
2021/09/26 07:34:36;;;;;;;58.70;3.37;;;17.10;1.00;;;;;;5050338;28;20542;-69
2021/09/26 07:37:03;;;;;;;58.13;2.83;;;17.30;1.00;;;;;;5051794;28;20551;-69
2021/09/26 07:39:30;;;;;;;58.37;2.70;;;17.50;1.00;;;;;;5052164;28;20489;-69
2021/09/26 07:41:57;;;;;;;58.37;2.97;;;17.60;1.00;;;;;;5052134;27;20459;-69
2021/09/26 07:44:25;;;;;;;58.07;2.60;;;17.80;1.00;;;;;;5051949;28;20476;-69
2021/09/26 07:46:52;;;;;;;58.50;3.27;;;17.90;1.00;;;;;;5051565;28;20447;-69
2021/09/26 07:49:19;;;;;;;57.87;2.70;;;18.00;1.00;;;;;;5052095;28;20871;-69
2021/09/26 07:51:46;;;;;;;58.40;2.60;;;18.20;1.00;;;;;;5051830;28;20444;-69
2021/09/26 07:54:15;;;;;;;58.33;3.10;;;18.30;1.00;;;;;;5052205;28;20444;-69
2021/09/26 07:56:42;;;;;;;58.43;3.23;;;18.40;1.00;;;;;;5051749;28;21032;-69
2021/09/26 07:59:09;;;;;;;59.10;4.27;;;18.50;1.00;;;;;;5051559;28;20527;-69
2021/09/26 08:01:37;;;;;;;58.20;2.70;;;18.70;1.00;;;;;;5051649;28;20450;-69
2021/09/26 08:04:05;;;;;;;58.27;2.60;;;18.90;1.00;;;;;;5051782;28;20445;-69
2021/09/26 08:06:31;;;;;;;60.90;3.17;;;19.10;1.00;;;;;;5051285;28;21000;-69
2021/09/26 08:08:58;;;;;;;58.40;2.70;;;19.10;1.00;;;;;;5051678;28;20474;-69
2021/09/26 08:11:25;;;;;;;58.30;2.50;;;19.20;1.00;;;;;;5051741;28;20819;-69
2021/09/26 08:13:52;;;;;;;59.47;2.87;;;19.30;1.00;;;;;;5051496;28;20527;-69
2021/09/26 08:16:19;;;;;;;58.30;3.00;;;19.50;1.00;;;;;;5051091;28;20475;-69
2021/09/26 08:18:47;;;;;;;58.60;3.10;;;19.70;1.00;;;;;;5051308;28;20553;-69
2021/09/26 08:21:14;;;;;;;58.50;2.93;;;19.90;1.00;;;;;;5051444;28;20568;-69
2021/09/26 08:23:41;;;;;;;58.30;3.20;;;20.00;1.00;;;;;;5051377;28;20536;-69
2021/09/26 08:26:08;;;;;;;59.77;3.20;;;20.10;1.00;;;;;;5050990;28;20481;-69
2021/09/26 08:28:35;;;;;;;58.40;3.57;;;20.30;1.00;;;;;;5051432;28;20510;-69
2021/09/26 08:31:02;;;;;;;58.07;2.80;;;20.50;1.00;;;;;;5051117;28;20993;-69
2021/09/26 08:33:29;;;;;;;57.97;2.47;;;20.70;1.00;;;;;;5051413;28;20878;-69
2021/09/26 08:35:57;;;;;;;58.50;2.70;;;20.80;1.00;;;;;;5050808;28;20546;-68
2021/09/26 08:38:24;;;;;;;57.93;2.70;;;21.10;1.00;;;;;;5051248;28;20467;-67
2021/09/26 08:40:51;;;;;;;58.17;3.20;;;21.20;1.00;;;;;;5050991;28;20567;-68
2021/09/26 08:43:20;;;;;;;58.07;2.80;;;21.40;1.00;;;;;;5050904;28;20778;-69
2021/09/26 08:45:48;;;;;;;57.90;2.60;;;21.50;1.00;;;;;;5049956;27;20451;-69
2021/09/26 08:48:15;;;;;;;58.33;3.00;;;21.60;1.00;;;;;;5051078;28;20474;-69
2021/09/26 08:50:44;;;;;;;58.33;2.87;;;21.70;1.00;;;;;;5050820;28;20451;-69
2021/09/26 08:53:12;;;;;;;58.37;2.90;;;21.70;1.00;;;;;;5051245;28;20640;-69
2021/09/26 08:55:39;;;;;;;58.30;2.80;;;21.80;1.00;;;;;;5050561;28;20474;-69
2021/09/26 08:58:06;;;;;;;58.40;2.87;;;21.90;1.00;;;;;;5050443;28;20474;-69
2021/09/26 09:00:33;;;;;;;58.60;3.20;;;21.90;1.00;;;;;;5050850;28;20898;-69
2021/09/26 09:03:02;;;;;;;58.50;3.23;;;21.80;1.00;;;;;;5050821;28;20488;-69
2021/09/26 09:05:32;;;;;;;58.53;2.70;;;21.70;1.00;;;;;;5050392;28;20535;-69
2021/09/26 09:08:07;;;;;;;58.57;3.40;;;21.80;1.00;;;;;;5050448;28;20581;-69
2021/09/26 09:10:47;;;;;;;58.67;3.47;;;21.80;1.00;;;;;;5051136;28;20443;-69
2021/09/26 09:13:16;;;;;;;58.07;3.20;;;21.80;1.00;;;;;;5050656;28;20527;-69
2021/09/26 09:15:52;;;;;;;59.80;3.37;;;21.90;1.00;;;;;;5050625;28;20552;-69
2021/09/26 09:18:19;;;;;;;58.30;2.70;;;21.90;1.00;;;;;;5050459;28;21059;-69
2021/09/26 09:20:46;;;;;;;57.97;2.83;;;21.80;1.00;;;;;;5050646;28;20480;-69
2021/09/26 09:23:16;;;;;;;58.50;2.83;;;21.80;1.00;;;;;;5050578;28;20538;-69
2021/09/26 09:25:46;;;;;;;58.47;3.27;;;21.80;1.00;;;;;;5050432;27;20939;-69
2021/09/26 09:28:15;;;;;;;57.77;2.70;;;21.80;1.00;;;;;;5050242;28;21058;-69
2021/09/26 09:30:43;;;;;;;58.20;2.67;;;21.70;1.00;;;;;;5050238;28;20456;-69
2021/09/26 09:33:11;;;;;;;58.37;2.83;;;21.60;1.00;;;;;;5050219;28;20491;-69
2021/09/26 09:35:41;;;;;;;58.47;2.90;;;21.50;1.00;;;;;;5049862;28;20617;-69
2021/09/26 09:38:09;;;;;;;58.70;3.00;;;21.50;1.00;;;;;;5050269;28;20521;-69
2021/09/26 09:40:36;;;;;;;58.17;3.03;;;21.50;1.00;;;;;;5050281;28;20571;-69
2021/09/26 09:43:05;;;;;;;58.30;2.90;;;21.50;1.00;;;;;;5050375;28;20479;-69
2021/09/26 09:45:34;;;;;;;58.30;2.90;;;21.60;1.00;;;;;;5049886;28;20532;-69
2021/09/26 09:48:08;;;;;;;63.73;4.00;;;21.70;1.00;;;;;;5049639;28;20479;-69
2021/09/26 09:50:57;;;;;;;58.37;3.03;;;21.90;1.00;;;;;;5050497;27;20493;-69
2021/09/26 09:53:30;;;;;;;58.13;2.70;;;22.10;1.00;;;;;;5051076;28;20462;-69
2021/09/26 09:56:19;;;;;;;57.90;2.80;;;22.20;1.00;;;;;;5049333;28;20479;-69
2021/09/26 09:58:49;;;;;;;58.50;3.10;;;22.30;1.00;;;;;;5052977;28;20963;-69
2021/09/26 10:01:18;;;;;;;58.17;3.03;;;22.40;1.00;;;;;;5050016;28;20908;-69
2021/09/26 10:03:48;;;;;;;57.93;2.83;;;22.30;1.00;;;;;;5049882;28;20448;-69
2021/09/26 10:06:35;;;;;;;58.20;3.00;;;22.30;1.00;;;;;;5049533;28;20493;-67
2021/09/26 10:09:05;;;;;;;58.70;3.10;;;22.40;1.00;;;;;;5049758;28;20472;-67
2021/09/26 10:11:33;;;;;;;58.40;2.87;;;22.40;1.00;;;;;;5049761;28;21037;-67
2021/09/26 10:14:01;;;;;;;57.90;2.50;;;22.30;1.00;;;;;;5049682;28;20539;-67
2021/09/26 10:16:28;;;;;;;58.10;2.50;;;22.10;1.00;;;;;;5049248;28;21007;-67
2021/09/26 10:18:55;;;;;;;58.37;3.03;;;22.00;1.00;;;;;;5049623;28;20555;-67
2021/09/26 10:21:22;;;;;;;58.17;3.53;;;21.90;1.00;;;;;;5049373;28;20559;-67
2021/09/26 10:23:52;;;;;;;58.37;2.90;;;21.80;1.00;;;;;;5049586;28;20452;-67
2021/09/26 10:26:24;;;;;;;57.93;2.90;;;21.70;1.00;;;;;;5049432;28;20543;-67
2021/09/26 10:28:53;;;;;;;58.20;2.53;;;21.60;1.00;;;;;;5049600;28;20475;-68
2021/09/26 10:31:23;;;;;;;58.30;2.90;;;21.50;1.00;;;;;;5049449;28;20535;-68
2021/09/26 10:33:51;;;;;;;58.80;3.50;;;21.40;1.00;;;;;;5049258;28;20481;-68
2021/09/26 10:36:21;;;;;;;58.17;2.67;;;21.30;1.00;;;;;;5049476;28;20449;-68
2021/09/26 10:38:50;;;;;;;60.50;4.70;;;21.20;1.00;;;;;;5049344;28;20469;-68
2021/09/26 10:41:19;;;;;;;58.07;2.87;;;21.10;1.00;;;;;;5049319;28;20512;-68
2021/09/26 10:43:46;;;;;;;58.17;3.23;;;21.00;1.00;;;;;;5049173;28;20472;-68
2021/09/26 10:46:15;;;;;;;58.13;3.03;;;21.00;1.00;;;;;;5048652;28;20448;-68
2021/09/26 10:49:09;;;;;;;58.40;2.77;;;20.90;1.00;;;;;;5048936;28;20475;-68
2021/09/26 10:51:45;;;;;;;58.07;2.67;;;21.00;1.00;;;;;;5049120;28;20575;-68
2021/09/26 10:54:31;;;;;;;58.13;2.90;;;21.00;1.00;;;;;;5049065;28;20447;-69
2021/09/26 10:57:20;;;;;;;58.27;2.53;;;21.10;1.00;;;;;;5049113;28;20546;-69
2021/09/26 10:59:48;;;;;;;57.87;2.70;;;21.20;1.00;;;;;;5049049;28;20534;-69
2021/09/26 11:02:43;;;;;;;58.30;2.90;;;21.40;1.00;;;;;;5048974;28;20844;-68
2021/09/26 11:05:31;;;;;;;57.87;2.67;;;21.60;1.00;;;;;;5049400;28;20463;-68
2021/09/26 11:07:59;;;;;;;58.07;2.93;;;21.80;1.00;;;;;;5048308;28;20545;-68
2021/09/26 11:10:48;;;;;;;58.50;3.57;;;21.90;1.00;;;;;;5048629;28;20966;-68
2021/09/26 11:13:23;;;;;;;59.30;4.30;;;21.80;1.00;;;;;;5048821;28;20535;-68
2021/09/26 11:16:15;;;;;;;58.57;3.20;;;21.70;1.00;;;;;;5048682;28;20579;-68
2021/09/26 11:19:00;;;;;;;58.30;3.27;;;21.50;1.00;;;;;;5048857;28;20471;-68
2021/09/26 11:21:50;;;;;;;57.67;2.50;;;21.40;1.00;;;;;;5048493;28;20518;-68
2021/09/26 11:24:35;;;;;;;58.30;3.30;;;21.20;1.00;;;;;;5048800;28;20526;-68
2021/09/26 11:27:13;;;;;;;58.57;3.00;;;21.00;1.00;;;;;;5048489;27;20479;-68
2021/09/26 11:30:27;;;;;;;58.10;3.00;;;20.90;1.00;;;;;;5048521;27;20460;-68
2021/09/26 11:33:07;;;;;;;57.47;2.60;;;20.70;1.00;;;;;;5052945;28;20509;-68
2021/09/26 11:35:36;;;;;;;58.40;2.90;;;20.60;1.00;;;;;;5048627;28;20485;-68
2021/09/26 11:38:07;;;;;;;58.17;2.80;;;20.50;1.00;;;;;;5048377;28;20998;-68
2021/09/26 11:40:59;;;;;;;57.93;2.53;;;20.50;1.00;;;;;;5048206;28;20459;-68
2021/09/26 11:43:28;;;;;;;57.97;2.50;;;20.50;1.00;;;;;;5048637;28;20455;-68
2021/09/26 11:45:59;;;;;;;59.00;3.93;;;20.50;1.00;;;;;;5048061;28;20461;-68
2021/09/26 11:48:35;;;;;;;58.37;3.20;;;20.50;1.00;;;;;;5048399;28;20561;-68
2021/09/26 11:51:07;;;;;;;58.07;2.90;;;20.50;1.00;;;;;;5048732;28;20442;-68
2021/09/26 11:53:36;;;;;;;59.07;3.43;;;20.50;1.00;;;;;;5048734;28;20477;-69
2021/09/26 11:56:18;;;;;;;59.00;3.50;;;20.40;1.00;;;;;;5048059;28;20450;-69
2021/09/26 11:58:46;;;;;;;58.60;2.80;;;20.30;1.00;;;;;;5048116;28;20477;-68
2021/09/26 12:01:13;;;;;;;58.80;4.10;;;20.20;1.00;;;;;;5048345;28;20484;-68
2021/09/26 12:03:40;;;;;;;58.07;2.47;;;20.20;1.00;;;;;;5048444;28;20536;-68
2021/09/26 12:06:17;;;;;;;60.90;3.33;;;20.10;1.00;;;;;;5047943;28;20447;-69
2021/09/26 12:08:46;;;;;;;57.83;2.80;;;20.00;1.00;;;;;;5048157;28;20470;-68
2021/09/26 12:11:12;;;;;;;58.13;2.90;;;20.00;1.00;;;;;;5048129;28;20442;-68
2021/09/26 12:13:49;;;;;;;57.60;2.50;;;20.00;1.00;;;;;;5047945;28;20443;-68
2021/09/26 12:16:16;;;;;;;58.40;3.37;;;20.10;1.00;;;;;;5047737;28;20493;-68
2021/09/26 12:18:51;;;;;;;60.30;4.40;;;20.10;1.00;;;;;;5047973;28;20842;-68
2021/09/26 12:21:19;;;;;;;58.23;2.70;;;20.20;1.00;;;;;;5050942;28;20853;-68
2021/09/26 12:23:52;;;;;;;57.93;2.50;;;20.40;1.00;;;;;;5051394;28;20450;-68
2021/09/26 12:26:26;;;;;;;57.83;2.67;;;20.60;1.00;;;;;;5050876;28;20538;-68
2021/09/26 12:29:11;;;;;;;58.30;3.43;;;21.10;1.00;;;;;;5051387;28;20467;-68
2021/09/26 12:31:40;;;;;;;58.17;2.77;;;21.60;1.00;;;;;;5051222;27;20495;-68
2021/09/26 12:34:10;;;;;;;58.10;2.80;;;21.90;1.00;;;;;;5051565;28;20449;-68
2021/09/26 12:36:40;;;;;;;57.83;2.70;;;22.20;1.00;;;;;;5050665;28;20536;-68
2021/09/26 12:39:18;;;;;;;58.37;3.03;;;22.50;1.00;;;;;;5051416;28;20451;-69
2021/09/26 12:41:49;;;;;;;59.17;3.97;;;23.00;1.00;;;;;;5051153;28;20853;-68
2021/09/26 12:44:27;;;;;;;58.63;3.27;;;23.90;1.00;;;;;;5051207;28;20456;-68
2021/09/26 12:46:54;;;;;;;58.40;2.77;;;25.00;1.00;;;;;;5050574;28;20453;-69
2021/09/26 12:49:22;;;;;;;59.20;4.00;;;26.30;1.00;;;;;;5050736;28;20455;-68
2021/09/26 12:51:52;;;;;;;58.77;2.83;;;27.40;1.00;;;;;;5050989;28;20865;-68
2021/09/26 12:54:25;;;;;;;59.30;3.80;;;27.60;1.00;;;;;;5050977;28;20535;-68
2021/09/26 12:56:53;;;;;;;58.80;2.67;;;27.50;1.00;;;;;;5050904;27;20451;-68
2021/09/26 12:59:26;;;;;;;57.97;2.60;;;27.30;1.00;;;;;;5050671;28;20450;-68